createdAt,value
2022-08-03T00:00:39.926Z,101076.97
2022-08-03T00:03:08.651Z,101081.56
2022-08-03T00:05:38.140Z,101081.44
2022-08-03T00:08:07.296Z,101083.78
2022-08-03T00:10:38.313Z,101082.75
2022-08-03T00:13:06.952Z,101086.22
2022-08-03T00:15:35.624Z,101091.59
2022-08-03T00:18:04.189Z,101085.69
2022-08-03T00:20:32.923Z,101088.91
2022-08-03T00:23:01.795Z,101079.75
2022-08-03T00:25:30.351Z,101089.22
2022-08-03T00:28:00.521Z,101082.78
2022-08-03T00:30:30.791Z,101083.44
2022-08-03T00:33:00.102Z,101085.97
2022-08-03T00:35:46.541Z,101088.53
2022-08-03T00:38:18.250Z,101083.66
2022-08-03T00:40:46.883Z,101091.09
2022-08-03T00:43:16.946Z,101080.28
2022-08-03T00:45:46.096Z,101085.78
2022-08-03T00:48:29.796Z,101097.41
2022-08-03T00:51:02.853Z,101082.75
2022-08-03T00:53:31.790Z,101095.88
2022-08-03T00:56:00.735Z,101100.00
2022-08-03T00:58:31.150Z,101106.19
2022-08-03T01:01:00.360Z,101102.50
2022-08-03T01:03:29.021Z,101096.72
2022-08-03T01:06:06.769Z,101104.50
2022-08-03T01:08:44.131Z,101100.59
2022-08-03T01:11:19.051Z,101107.22
2022-08-03T01:14:02.001Z,101102.13
2022-08-03T01:16:41.615Z,101100.69
2022-08-03T01:19:28.026Z,101102.88
2022-08-03T01:22:09.697Z,101100.34
2022-08-03T01:24:52.047Z,101099.63
2022-08-03T01:27:24.883Z,101106.38
2022-08-03T01:30:05.665Z,101100.78
2022-08-03T01:32:59.603Z,101109.56
2022-08-03T01:35:38.708Z,101108.91
2022-08-03T01:38:13.231Z,101110.91
2022-08-03T01:40:45.531Z,101110.50
2022-08-03T01:43:59.016Z,101108.25
2022-08-03T01:46:11.865Z,101111.34
2022-08-03T01:48:43.766Z,101110.91
2022-08-03T01:51:13.502Z,101109.47
2022-08-03T01:53:44.306Z,101116.66
2022-08-03T01:56:13.949Z,101123.56
2022-08-03T01:58:43.717Z,101115.03
2022-08-03T02:01:15.269Z,101116.50
2022-08-03T02:04:00.845Z,101116.88
2022-08-03T02:06:59.909Z,101112.97
2022-08-03T02:09:24.991Z,101113.53
2022-08-03T02:11:54.707Z,101117.44
2022-08-03T02:14:28.191Z,101112.66
2022-08-03T02:17:00.110Z,101118.19
2022-08-03T02:19:33.827Z,101110.75
2022-08-03T02:22:06.632Z,101122.66
2022-08-03T02:24:35.239Z,101126.06
2022-08-03T02:27:07.662Z,101130.16
2022-08-03T02:29:41.015Z,101130.69
2022-08-03T02:32:18.801Z,101129.84
2022-08-03T02:34:51.869Z,101142.00
2022-08-03T02:37:23.141Z,101127.19
2022-08-03T02:39:53.665Z,101138.94
2022-08-03T02:42:24.740Z,101141.44
2022-08-03T02:44:57.040Z,101137.69
2022-08-03T02:47:53.509Z,101141.88
2022-08-03T02:50:18.985Z,101135.69
2022-08-03T02:52:49.468Z,101136.56
2022-08-03T02:55:21.366Z,101142.88
2022-08-03T02:57:51.404Z,101140.19
2022-08-03T03:00:28.462Z,101138.38
2022-08-03T03:03:02.102Z,101141.06
2022-08-03T03:05:54.866Z,101136.56
2022-08-03T03:08:25.953Z,101135.56
2022-08-03T03:10:56.623Z,101138.94
2022-08-03T03:13:26.586Z,101144.34
2022-08-03T03:15:58.164Z,101137.31
2022-08-03T03:18:30.202Z,101136.53
2022-08-03T03:21:00.421Z,101134.34
2022-08-03T03:23:30.070Z,101142.28
2022-08-03T03:26:02.461Z,101142.81
2022-08-03T03:28:33.317Z,101143.97
2022-08-03T03:31:02.221Z,101140.06
2022-08-03T03:33:32.619Z,101151.84
2022-08-03T03:36:01.900Z,101154.78
2022-08-03T03:38:31.041Z,101154.16
2022-08-03T03:41:00.100Z,101145.06
2022-08-03T03:43:31.019Z,101145.53
2022-08-03T03:46:00.259Z,101145.41
2022-08-03T03:48:29.798Z,101149.91
2022-08-03T03:51:02.984Z,101151.63
2022-08-03T03:53:31.603Z,101151.13
2022-08-03T03:56:02.679Z,101150.66
2022-08-03T03:58:33.463Z,101151.34
2022-08-03T04:01:02.541Z,101160.22
2022-08-03T04:03:31.584Z,101151.09
2022-08-03T04:06:19.418Z,101159.41
2022-08-03T04:09:16.963Z,101165.69
2022-08-03T04:11:50.503Z,101177.81
2022-08-03T04:14:22.280Z,101168.81
2022-08-03T04:16:53.685Z,101183.22
2022-08-03T04:19:28.479Z,101185.66
2022-08-03T04:22:02.499Z,101178.03
2022-08-03T04:24:36.301Z,101182.09
2022-08-03T04:27:09.160Z,101185.66
2022-08-03T04:29:46.406Z,101184.97
2022-08-03T04:32:18.992Z,101192.81
2022-08-03T04:34:48.620Z,101198.59
2022-08-03T04:37:28.588Z,101187.91
2022-08-03T04:40:01.241Z,101197.44
2022-08-03T04:42:34.382Z,101200.81
2022-08-03T04:45:05.919Z,101202.84
2022-08-03T04:47:35.720Z,101203.69
2022-08-03T04:50:11.876Z,101206.94
2022-08-03T04:52:44.380Z,101201.66
2022-08-03T04:55:13.318Z,101205.91
2022-08-03T04:57:42.160Z,101204.22
2022-08-03T05:00:12.239Z,101203.66
2022-08-03T05:02:40.944Z,101199.34
2022-08-03T05:05:10.663Z,101197.25
2022-08-03T05:07:40.218Z,101200.69
2022-08-03T05:10:16.357Z,101198.81
2022-08-03T05:12:46.923Z,101204.25
2022-08-03T05:15:16.195Z,101196.56
2022-08-03T05:17:45.139Z,101196.81
2022-08-03T05:20:16.667Z,101199.50
2022-08-03T05:22:47.800Z,101201.63
2022-08-03T05:25:20.528Z,101202.16
2022-08-03T05:27:50.259Z,101198.50
2022-08-03T05:30:30.467Z,101207.84
2022-08-03T05:33:04.949Z,101206.06
2022-08-03T05:36:00.564Z,101209.59
2022-08-03T05:38:28.926Z,101211.53
2022-08-03T05:41:22.813Z,101208.88
2022-08-03T05:43:54.151Z,101200.31
2022-08-03T05:46:24.160Z,101200.13
2022-08-03T05:48:53.856Z,101208.59
2022-08-03T05:51:22.747Z,101212.03
2022-08-03T05:53:51.526Z,101214.97
2022-08-03T05:56:41.868Z,101208.22
2022-08-03T05:59:35.821Z,101206.94
2022-08-03T06:01:59.669Z,101206.72
2022-08-03T06:04:28.482Z,101218.03
2022-08-03T06:06:57.708Z,101214.06
2022-08-03T06:09:31.849Z,101211.72
2022-08-03T06:12:16.865Z,101212.94
2022-08-03T06:14:45.742Z,101211.06
2022-08-03T06:17:14.484Z,101212.59
2022-08-03T06:19:43.984Z,101217.09
2022-08-03T06:22:12.718Z,101213.78
2022-08-03T06:24:53.302Z,101218.16
2022-08-03T06:27:36.602Z,101225.84
2022-08-03T06:30:08.103Z,101223.38
2022-08-03T06:32:36.738Z,101227.69
2022-08-03T06:35:06.337Z,101227.56
2022-08-03T06:37:44.617Z,101220.25
2022-08-03T06:40:15.166Z,101223.84
2022-08-03T06:42:51.980Z,101221.22
2022-08-03T06:45:20.757Z,101218.34
2022-08-03T06:47:49.597Z,101221.69
2022-08-03T06:50:26.067Z,101223.88
2022-08-03T06:52:55.161Z,101221.78
2022-08-03T06:55:23.818Z,101222.44
2022-08-03T06:57:53.964Z,101220.72
2022-08-03T07:00:22.879Z,101225.56
2022-08-03T07:02:56.122Z,101221.47
2022-08-03T07:05:27.285Z,101225.13
2022-08-03T07:07:57.917Z,101225.97
2022-08-03T07:10:26.302Z,101227.03
2022-08-03T07:12:57.025Z,101230.44
2022-08-03T07:15:54.494Z,101233.41
2022-08-03T07:18:14.804Z,101226.88
2022-08-03T07:20:43.565Z,101220.09
2022-08-03T07:23:19.027Z,101222.00
2022-08-03T07:25:48.144Z,101215.59
2022-08-03T07:28:18.300Z,101222.41
2022-08-03T07:30:46.896Z,101219.22
2022-08-03T07:33:16.541Z,101220.25
2022-08-03T07:35:45.302Z,101219.13
2022-08-03T07:38:13.878Z,101226.72
2022-08-03T07:40:46.172Z,101223.34
2022-08-03T07:43:15.321Z,101233.88
2022-08-03T07:45:45.299Z,101223.44
2022-08-03T07:48:14.023Z,101230.81
2022-08-03T07:50:42.821Z,101229.22
2022-08-03T07:53:11.523Z,101239.75
2022-08-03T07:55:40.358Z,101230.88
2022-08-03T07:58:12.669Z,101233.34
2022-08-03T08:00:41.595Z,101234.06
2022-08-03T08:03:13.497Z,101221.94
2022-08-03T08:05:41.899Z,101225.78
2022-08-03T08:08:11.856Z,101233.97
2022-08-03T08:10:40.678Z,101232.13
2022-08-03T08:13:09.375Z,101233.88
2022-08-03T08:15:42.590Z,101232.69
2022-08-03T08:18:13.902Z,101227.19
2022-08-03T08:20:42.818Z,101227.59
2022-08-03T08:23:37.854Z,101226.28
2022-08-03T08:26:01.162Z,101226.72
2022-08-03T08:28:33.449Z,101231.81
2022-08-03T08:31:02.801Z,101232.88
2022-08-03T08:34:02.753Z,101238.16
2022-08-03T08:36:24.260Z,101239.03
2022-08-03T08:38:53.018Z,101239.00
2022-08-03T08:41:21.667Z,101240.44
2022-08-03T08:43:50.362Z,101244.66
2022-08-03T08:46:23.791Z,101247.88
2022-08-03T08:48:55.436Z,101251.50
2022-08-03T08:51:54.518Z,101253.59
2022-08-03T08:54:20.098Z,101251.22
2022-08-03T08:56:50.175Z,101250.97
2022-08-03T08:59:19.727Z,101255.22
2022-08-03T09:01:48.332Z,101253.25
2022-08-03T09:04:19.094Z,101258.50
2022-08-03T09:07:04.720Z,101254.75
2022-08-03T09:10:10.093Z,101251.09
2022-08-03T09:12:42.910Z,101249.53
2022-08-03T09:15:20.023Z,101247.09
2022-08-03T09:17:51.155Z,101245.44
2022-08-03T09:20:23.261Z,101247.78
2022-08-03T09:22:58.115Z,101252.59
2022-08-03T09:25:34.354Z,101250.28
2022-08-03T09:28:09.144Z,101253.44
2022-08-03T09:30:39.199Z,101252.59
2022-08-03T09:33:09.458Z,101251.50
2022-08-03T09:35:59.707Z,101256.81
2022-08-03T09:38:28.839Z,101251.75
2022-08-03T09:41:00.924Z,101253.47
2022-08-03T09:43:30.300Z,101246.75
2022-08-03T09:46:05.128Z,101250.97
2022-08-03T09:48:35.138Z,101256.69
2022-08-03T09:51:13.898Z,101253.09
2022-08-03T09:54:00.249Z,101255.19
2022-08-03T09:56:41.081Z,101249.34
2022-08-03T09:59:10.295Z,101258.22
2022-08-03T10:01:42.077Z,101252.09
2022-08-03T10:04:18.294Z,101257.97
2022-08-03T10:07:05.117Z,101249.34
2022-08-03T10:09:34.037Z,101262.22
2022-08-03T10:12:15.800Z,101256.09
2022-08-03T10:14:46.881Z,101252.09
2022-08-03T10:17:16.159Z,101253.25
2022-08-03T10:19:45.175Z,101246.06
2022-08-03T10:22:18.040Z,101243.56
2022-08-03T10:24:53.820Z,101245.75
2022-08-03T10:27:24.617Z,101240.44
2022-08-03T10:29:55.580Z,101250.16
2022-08-03T10:32:31.800Z,101251.22
2022-08-03T10:35:20.920Z,101244.66
2022-08-03T10:37:57.397Z,101256.28
2022-08-03T10:40:48.269Z,101256.41
2022-08-03T10:43:23.174Z,101245.78
2022-08-03T10:45:52.798Z,101242.59
2022-08-03T10:48:22.121Z,101241.38
2022-08-03T10:50:51.946Z,101259.41
2022-08-03T10:53:36.820Z,101260.28
2022-08-03T10:56:26.615Z,101259.25
2022-08-03T10:59:11.818Z,101262.41
2022-08-03T11:02:00.643Z,101252.69
2022-08-03T11:04:30.887Z,101263.47
2022-08-03T11:07:22.257Z,101258.53
2022-08-03T11:09:53.696Z,101257.97
2022-08-03T11:12:30.026Z,101251.81
2022-08-03T11:15:02.400Z,101263.19
2022-08-03T11:17:31.277Z,101269.59
2022-08-03T11:20:00.107Z,101257.91
2022-08-03T11:22:50.042Z,101246.03
2022-08-03T11:25:54.831Z,101254.47
2022-08-03T11:28:28.592Z,101252.66
2022-08-03T11:30:57.342Z,101253.28
2022-08-03T11:33:33.536Z,101251.75
2022-08-03T11:36:03.683Z,101250.50
2022-08-03T11:38:32.431Z,101239.19
2022-08-03T11:41:02.926Z,101242.38
2022-08-03T11:43:47.319Z,101247.00
2022-08-03T11:46:29.406Z,101238.16
2022-08-03T11:49:10.773Z,101237.59
2022-08-03T11:51:40.616Z,101244.13
2022-08-03T11:54:11.566Z,101250.28
2022-08-03T11:56:49.244Z,101245.88
2022-08-03T11:59:22.188Z,101237.59
2022-08-03T12:01:51.880Z,101245.03
2022-08-03T12:04:20.675Z,101245.47
2022-08-03T12:07:04.527Z,101242.09
2022-08-03T12:09:36.394Z,101247.38
2022-08-03T12:12:07.077Z,101244.22
2022-08-03T12:14:49.088Z,101234.03
2022-08-03T12:17:20.699Z,101238.91
2022-08-03T12:19:49.438Z,101230.03
2022-08-03T12:22:18.300Z,101235.31
2022-08-03T12:24:47.757Z,101240.81
2022-08-03T12:27:26.720Z,101232.13
2022-08-03T12:29:58.322Z,101235.16
2022-08-03T12:32:28.344Z,101244.03
2022-08-03T12:35:01.674Z,101240.03
2022-08-03T12:37:31.152Z,101249.69
2022-08-03T12:40:10.449Z,101240.84
2022-08-03T12:42:41.715Z,101241.63
2022-08-03T12:45:25.276Z,101242.44
2022-08-03T12:47:55.802Z,101243.53
2022-08-03T12:50:28.949Z,101237.81
2022-08-03T12:52:58.828Z,101241.41
2022-08-03T12:55:57.083Z,101242.44
2022-08-03T12:58:37.498Z,101236.97
2022-08-03T13:01:10.468Z,101238.63
2022-08-03T13:03:45.711Z,101238.63
2022-08-03T13:06:15.398Z,101227.63
2022-08-03T13:08:46.936Z,101224.69
2022-08-03T13:11:53.604Z,101226.38
2022-08-03T13:14:20.038Z,101227.84
2022-08-03T13:16:49.941Z,101234.78
2022-08-03T13:19:18.743Z,101231.00
2022-08-03T13:22:01.810Z,101227.19
2022-08-03T13:24:34.324Z,101233.53
2022-08-03T13:28:02.062Z,101232.25
2022-08-03T13:29:55.939Z,101232.69
2022-08-03T13:32:25.160Z,101235.19
2022-08-03T13:34:53.799Z,101228.22
2022-08-03T13:37:22.855Z,101231.84
2022-08-03T13:39:59.369Z,101226.97
2022-08-03T13:42:31.297Z,101236.94
2022-08-03T13:45:02.820Z,101222.13
2022-08-03T13:47:31.436Z,101217.47
2022-08-03T13:50:02.866Z,101225.91
2022-08-03T13:52:33.883Z,101222.53
2022-08-03T13:55:03.438Z,101221.44
2022-08-03T13:58:04.730Z,101221.88
2022-08-03T14:00:28.438Z,101217.16
2022-08-03T14:03:06.713Z,101212.72
2022-08-03T14:05:42.008Z,101220.38
2022-08-03T14:08:11.129Z,101218.91
2022-08-03T14:10:43.083Z,101213.34
2022-08-03T14:13:16.001Z,101218.38
2022-08-03T14:15:51.002Z,101221.22
2022-08-03T14:18:28.477Z,101224.59
2022-08-03T14:21:06.230Z,101233.44
2022-08-03T14:23:36.197Z,101223.53
2022-08-03T14:26:05.183Z,101230.09
2022-08-03T14:28:34.244Z,101224.09
2022-08-03T14:31:04.421Z,101227.97
2022-08-03T14:33:37.703Z,101222.63
2022-08-03T14:36:06.943Z,101213.97
2022-08-03T14:38:35.801Z,101217.75
2022-08-03T14:41:04.834Z,101217.09
2022-08-03T14:43:34.253Z,101221.97
2022-08-03T14:46:04.506Z,101214.78
2022-08-03T14:50:28.954Z,101208.28
2022-08-03T14:51:22.279Z,101212.09
2022-08-03T14:53:50.891Z,101213.94
2022-08-03T14:56:19.467Z,101208.03
2022-08-03T14:58:48.162Z,101218.19
2022-08-03T15:02:05.519Z,101218.59
2022-08-03T15:04:07.180Z,101211.25
2022-08-03T15:06:35.917Z,101213.75
2022-08-03T15:09:21.714Z,101209.53
2022-08-03T15:11:52.597Z,101208.03
2022-08-03T15:14:22.322Z,101206.97
2022-08-03T15:16:58.808Z,101208.00
2022-08-03T15:20:01.029Z,101208.03
2022-08-03T15:22:19.034Z,101197.50
2022-08-03T15:24:49.457Z,101199.16
2022-08-03T15:27:18.325Z,101205.53
2022-08-03T15:30:05.796Z,101194.97
2022-08-03T15:32:37.646Z,101196.44
2022-08-03T15:35:06.787Z,101199.41
2022-08-03T15:37:35.426Z,101193.25
2022-08-03T15:40:04.345Z,101194.97
2022-08-03T15:42:35.065Z,101192.31
2022-08-03T15:45:03.796Z,101197.81
2022-08-03T15:47:32.562Z,101185.63
2022-08-03T15:50:06.525Z,101193.44
2022-08-03T15:52:38.055Z,101195.56
2022-08-03T15:55:07.460Z,101190.69
2022-08-03T15:59:09.918Z,101185.66
2022-08-03T16:00:33.792Z,101190.50
2022-08-03T16:03:03.246Z,101191.38
2022-08-03T16:05:33.666Z,101189.75
2022-08-03T16:08:03.717Z,101195.81
2022-08-03T16:10:33.863Z,101194.81
2022-08-03T16:13:02.562Z,101196.47
2022-08-03T16:15:31.244Z,101192.84
2022-08-03T16:18:00.361Z,101187.16
2022-08-03T16:20:30.968Z,101188.81
2022-08-03T16:23:11.338Z,101192.22
2022-08-03T16:25:42.129Z,101195.19
2022-08-03T16:28:14.795Z,101190.88
2022-08-03T16:30:45.286Z,101189.53
2022-08-03T16:33:17.424Z,101185.41
2022-08-03T16:35:46.679Z,101193.00
2022-08-03T16:38:19.118Z,101192.59
2022-08-03T16:40:52.196Z,101188.59
2022-08-03T16:43:22.359Z,101180.34
2022-08-03T16:45:51.267Z,101183.88
2022-08-03T16:48:20.554Z,101190.88
2022-08-03T16:50:49.924Z,101189.03
2022-08-03T16:53:51.556Z,101193.88
2022-08-03T16:56:10.851Z,101190.03
2022-08-03T16:58:42.260Z,101197.28
2022-08-03T17:01:22.413Z,101192.88
2022-08-03T17:04:01.272Z,101199.66
2022-08-03T17:06:34.518Z,101198.19
2022-08-03T17:09:09.230Z,101197.75
2022-08-03T17:11:46.704Z,101206.16
2022-08-03T17:14:17.079Z,101204.84
2022-08-03T17:16:52.713Z,101194.91
2022-08-03T17:19:24.618Z,101202.28
2022-08-03T17:21:58.509Z,101205.59
2022-08-03T17:24:33.794Z,101211.72
2022-08-03T17:27:08.938Z,101212.72
2022-08-03T17:29:44.984Z,101211.53
2022-08-03T17:32:18.383Z,101216.53
2022-08-03T17:34:51.692Z,101213.75
2022-08-03T17:37:50.101Z,101221.69
2022-08-03T17:40:17.458Z,101211.31
2022-08-03T17:42:50.464Z,101220.38
2022-08-03T17:45:20.511Z,101227.25
2022-08-03T17:47:57.811Z,101234.28
2022-08-03T17:50:35.870Z,101232.09
2022-08-03T17:53:23.616Z,101237.44
2022-08-03T17:56:42.690Z,101229.66
2022-08-03T17:59:51.029Z,101238.69
2022-08-03T18:02:40.731Z,101243.84
2022-08-03T18:05:22.006Z,101256.09
2022-08-03T18:08:02.599Z,101244.47
2022-08-03T18:10:49.543Z,101250.22
2022-08-03T18:13:25.699Z,101255.63
2022-08-03T18:16:02.679Z,101247.53
2022-08-03T18:18:37.438Z,101260.81
2022-08-03T18:21:17.010Z,101254.97
2022-08-03T18:23:50.363Z,101252.50
2022-08-03T18:26:20.221Z,101265.19
2022-08-03T18:28:54.099Z,101256.00
2022-08-03T18:31:33.197Z,101257.69
2022-08-03T18:34:33.208Z,101262.75
2022-08-03T18:37:07.342Z,101258.88
2022-08-03T18:39:49.506Z,101255.84
2022-08-03T18:42:25.604Z,101258.47
2022-08-03T18:44:57.282Z,101257.13
2022-08-03T18:47:50.443Z,101265.28
2022-08-03T18:50:30.540Z,101266.94
2022-08-03T18:53:15.515Z,101265.44
2022-08-03T18:56:01.300Z,101273.56
2022-08-03T18:58:38.713Z,101269.44
2022-08-03T19:01:58.924Z,101275.56
2022-08-03T19:04:10.735Z,101274.84
2022-08-03T19:06:44.192Z,101279.38
2022-08-03T19:09:20.728Z,101281.50
2022-08-03T19:12:10.963Z,101273.53
2022-08-03T19:14:45.113Z,101279.63
2022-08-03T19:17:21.332Z,101277.94
2022-08-03T19:19:52.808Z,101279.53
2022-08-03T19:22:22.545Z,101276.50
2022-08-03T19:24:55.382Z,101283.78
2022-08-03T19:27:26.950Z,101269.78
2022-08-03T19:30:02.091Z,101278.53
2022-08-03T19:32:35.337Z,101279.06
2022-08-03T19:35:13.357Z,101275.50
2022-08-03T19:37:48.248Z,101286.03
2022-08-03T19:40:19.755Z,101285.03
2022-08-03T19:42:51.799Z,101289.63
2022-08-03T19:46:04.797Z,101283.34
2022-08-03T19:48:22.277Z,101278.28
2022-08-03T19:50:54.638Z,101278.81
2022-08-03T19:53:25.385Z,101274.94
2022-08-03T19:56:07.277Z,101281.78
2022-08-03T19:58:37.479Z,101286.59
2022-08-03T20:01:19.534Z,101279.84
2022-08-03T20:03:53.281Z,101286.97
2022-08-03T20:06:24.725Z,101284.19
2022-08-03T20:08:55.420Z,101282.50
2022-08-03T20:11:28.521Z,101282.66
2022-08-03T20:13:59.507Z,101285.66
2022-08-03T20:16:28.159Z,101294.09
2022-08-03T20:18:58.257Z,101293.25
2022-08-03T20:21:32.505Z,101297.69
2022-08-03T20:24:24.498Z,101296.63
2022-08-03T20:26:56.579Z,101299.78
2022-08-03T20:29:42.795Z,101306.97
2022-08-03T20:32:24.464Z,101302.69
2022-08-03T20:34:55.523Z,101309.63
2022-08-03T20:37:24.165Z,101310.25
2022-08-03T20:39:54.545Z,101314.19
2022-08-03T20:42:23.653Z,101317.72
2022-08-03T20:45:05.382Z,101311.63
2022-08-03T20:47:36.741Z,101317.00
2022-08-03T20:50:22.517Z,101315.56
2022-08-03T20:52:51.224Z,101310.84
2022-08-03T20:55:20.457Z,101315.66
2022-08-03T20:58:09.518Z,101309.34
2022-08-03T21:00:38.301Z,101310.25
2022-08-03T21:03:07.024Z,101315.03
2022-08-03T21:05:51.373Z,101306.78
2022-08-03T21:08:23.897Z,101313.69
2022-08-03T21:10:54.856Z,101317.31
2022-08-03T21:13:27.183Z,101316.59
2022-08-03T21:16:12.454Z,101322.34
2022-08-03T21:18:47.525Z,101322.06
2022-08-03T21:21:19.779Z,101321.38
2022-08-03T21:23:52.790Z,101323.56
2022-08-03T21:26:23.555Z,101316.72
2022-08-03T21:28:55.160Z,101320.97
2022-08-03T21:31:26.468Z,101317.56
2022-08-03T21:33:57.871Z,101315.56
2022-08-03T21:36:29.951Z,101315.56
2022-08-03T21:39:00.225Z,101319.81
2022-08-03T21:41:31.103Z,101318.84
2022-08-03T21:44:00.721Z,101309.72
2022-08-03T21:46:34.677Z,101316.72
2022-08-03T21:50:05.268Z,101312.00
2022-08-03T21:51:59.395Z,101311.72
2022-08-03T21:54:34.834Z,101310.03
2022-08-03T21:57:06.145Z,101308.75
2022-08-03T21:59:38.721Z,101309.41
2022-08-03T22:02:22.390Z,101305.03
2022-08-03T22:04:55.329Z,101307.63
2022-08-03T22:07:28.743Z,101305.19
2022-08-03T22:09:57.863Z,101302.19
2022-08-03T22:12:27.880Z,101306.31
2022-08-03T22:15:01.118Z,101310.41
2022-08-03T22:17:53.601Z,101317.97
2022-08-03T22:20:21.393Z,101309.16
2022-08-03T22:22:56.731Z,101309.56
2022-08-03T22:25:30.802Z,101311.09
2022-08-03T22:28:01.625Z,101310.44
2022-08-03T22:30:31.783Z,101306.13
2022-08-03T22:33:02.641Z,101310.13
2022-08-03T22:35:47.517Z,101303.72
2022-08-03T22:38:19.362Z,101317.00
2022-08-03T22:40:49.155Z,101310.00
2022-08-03T22:43:18.227Z,101310.59
2022-08-03T22:46:09.398Z,101306.72
2022-08-03T22:48:41.338Z,101295.19
2022-08-03T22:51:10.679Z,101302.56
2022-08-03T22:53:41.839Z,101299.34
2022-08-03T22:56:10.472Z,101301.03
2022-08-03T22:58:39.023Z,101310.94
2022-08-03T23:01:09.976Z,101308.03
2022-08-03T23:04:00.639Z,101310.47
2022-08-03T23:06:36.843Z,101303.75
2022-08-03T23:09:09.717Z,101307.69
2022-08-03T23:11:45.728Z,101308.53
2022-08-03T23:14:16.623Z,101308.41
2022-08-03T23:16:46.352Z,101308.69
2022-08-03T23:19:25.319Z,101305.41
2022-08-03T23:22:03.250Z,101308.41
2022-08-03T23:24:36.073Z,101307.06
2022-08-03T23:27:06.192Z,101307.13
2022-08-03T23:29:37.609Z,101307.41
2022-08-03T23:32:07.908Z,101310.22
2022-08-03T23:34:57.047Z,101307.22
2022-08-03T23:37:26.722Z,101311.56
2022-08-03T23:39:58.894Z,101314.81
2022-08-03T23:42:28.664Z,101317.16
2022-08-03T23:45:04.726Z,101315.84
2022-08-03T23:47:46.436Z,101316.69
2022-08-03T23:50:16.419Z,101326.56
2022-08-03T23:52:54.332Z,101316.06
2022-08-03T23:55:38.058Z,101320.97
2022-08-03T23:58:20.691Z,101318.69
